createdAt,value
2018-07-10T06:56:48.658Z,9.00
2018-07-10T06:59:17.299Z,9.13
2018-07-10T07:01:46.881Z,9.30
2018-07-10T07:04:15.476Z,7.80
2018-07-10T07:06:44.030Z,10.25
2018-07-10T07:09:13.531Z,7.00
2018-07-10T07:11:44.146Z,7.60
2018-07-10T07:14:14.423Z,7.20
2018-07-10T07:16:43.080Z,8.08
2018-07-10T07:19:12.668Z,6.45
2018-07-10T07:21:41.379Z,6.55
2018-07-10T07:24:09.966Z,8.30
2018-07-10T07:26:39.084Z,7.78
2018-07-10T07:29:08.494Z,6.40
2018-07-10T07:31:37.169Z,7.40
2018-07-10T07:34:07.552Z,7.90
2018-07-10T07:36:36.088Z,5.28
2018-07-10T07:39:05.563Z,6.55
2018-07-10T07:41:34.471Z,6.53
2018-07-10T07:44:04.163Z,5.35
2018-07-10T07:46:33.195Z,8.23
2018-07-10T07:49:03.566Z,5.42
2018-07-10T07:51:34.443Z,7.30
2018-07-10T07:54:06.631Z,8.68
2018-07-10T07:56:36.505Z,4.97
2018-07-10T07:59:05.282Z,7.85
2018-07-10T08:01:35.016Z,8.03
2018-07-10T08:04:05.712Z,5.40
2018-07-10T08:06:34.227Z,7.15
2018-07-10T08:09:05.818Z,6.08
2018-07-10T08:11:35.566Z,3.98
2018-07-10T08:14:05.229Z,5.30
2018-07-10T08:16:35.960Z,7.30
2018-07-10T08:19:06.068Z,5.35
2018-07-10T08:21:35.068Z,5.17
2018-07-10T08:24:03.755Z,4.40
2018-07-10T08:26:33.011Z,3.52
2018-07-10T08:29:02.682Z,4.60
2018-07-10T08:31:32.526Z,6.40
2018-07-10T08:34:01.282Z,5.12
2018-07-10T08:36:31.055Z,6.03
2018-07-10T08:39:00.662Z,13.90
2018-07-10T08:41:38.198Z,7.78
2018-07-10T08:44:07.680Z,7.17
2018-07-10T08:46:37.686Z,6.80
2018-07-10T08:49:08.545Z,8.23
2018-07-10T08:51:38.491Z,8.10
2018-07-10T08:54:07.865Z,6.62
2018-07-10T08:56:38.302Z,8.00
2018-07-10T08:59:07.958Z,7.15
2018-07-10T09:01:38.402Z,5.87
2018-07-10T09:04:07.591Z,7.67
2018-07-10T09:06:36.874Z,9.20
2018-07-10T09:09:06.020Z,7.55
2018-07-10T09:11:34.712Z,7.15
2018-07-10T09:14:04.055Z,6.85
2018-07-10T09:16:33.700Z,6.75
2018-07-10T09:19:02.900Z,6.95
2018-07-10T09:21:32.426Z,4.28
2018-07-10T09:24:01.112Z,6.70
2018-07-10T09:26:30.506Z,8.43
2018-07-10T09:29:00.041Z,5.78
2018-07-10T09:31:28.738Z,5.08
2018-07-10T09:33:57.367Z,7.58
2018-07-10T09:36:26.003Z,5.85
2018-07-10T09:38:56.405Z,5.67
2018-07-10T09:41:24.990Z,7.70
2018-07-10T09:43:54.690Z,8.55
2018-07-10T09:46:24.726Z,5.00
2018-07-10T09:48:54.928Z,6.35
2018-07-10T09:51:25.083Z,9.80
2018-07-10T09:53:55.451Z,7.30
2018-07-10T09:56:24.707Z,8.70
2018-07-10T09:58:54.983Z,10.13
2018-07-10T10:01:27.816Z,10.13
2018-07-10T10:03:57.755Z,7.03
2018-07-10T10:06:26.450Z,7.40
2018-07-10T10:08:55.825Z,8.55
2018-07-10T10:11:24.518Z,11.35
2018-07-10T10:13:54.101Z,8.40
2018-07-10T10:16:23.687Z,7.42
2018-07-10T10:18:57.651Z,8.25
2018-07-10T10:21:27.283Z,10.08
2018-07-10T10:23:58.072Z,7.25
2018-07-10T10:26:28.496Z,10.38
2018-07-10T10:28:57.418Z,10.05
2018-07-10T10:31:28.132Z,9.93
2018-07-10T10:33:57.103Z,9.45
2018-07-10T10:36:26.345Z,7.87
2018-07-10T10:38:57.074Z,9.40
2018-07-10T10:41:27.511Z,6.45
2018-07-10T10:43:59.235Z,7.22
2018-07-10T10:46:27.962Z,10.72
2018-07-10T10:48:56.556Z,8.83
2018-07-10T10:51:26.494Z,6.50
2018-07-10T10:53:56.626Z,8.93
2018-07-10T10:56:25.655Z,11.08
2018-07-10T10:58:54.422Z,9.18
2018-07-10T11:01:23.745Z,9.38
2018-07-10T11:03:54.400Z,7.37
2018-07-10T11:06:24.471Z,6.95
2018-07-10T11:08:53.936Z,9.43
2018-07-10T11:11:22.703Z,8.38
2018-07-10T11:13:52.772Z,9.40
2018-07-10T11:16:22.342Z,7.15
2018-07-10T11:18:57.726Z,9.85
2018-07-10T11:22:30.893Z,7.00
2018-07-10T11:25:05.912Z,7.78
2018-07-10T11:27:47.126Z,8.85
2018-07-10T11:30:18.079Z,8.13
2018-07-10T11:32:48.188Z,5.87
2018-07-10T11:35:17.425Z,9.15
2018-07-10T11:37:49.604Z,11.22
2018-07-10T11:40:18.401Z,8.58
2018-07-10T11:42:49.658Z,12.18
2018-07-10T11:45:18.972Z,8.33
2018-07-10T11:47:49.098Z,8.75
2018-07-10T11:50:18.838Z,10.13
2018-07-10T11:52:50.779Z,9.43
2018-07-10T11:55:19.386Z,10.93
2018-07-10T11:57:49.479Z,10.80
2018-07-10T12:00:18.739Z,8.53
2018-07-10T12:02:48.077Z,10.72
2018-07-10T12:05:21.954Z,9.50
2018-07-10T12:07:55.416Z,10.13
2018-07-10T12:10:27.786Z,11.10
2018-07-10T12:12:58.775Z,10.10
2018-07-10T12:15:30.506Z,9.58
2018-07-10T12:18:00.187Z,11.85
2018-07-10T12:20:40.401Z,9.75
2018-07-10T12:23:10.839Z,8.20
2018-07-10T12:25:41.205Z,6.50
2018-07-10T12:28:17.305Z,10.43
2018-07-10T12:30:46.958Z,8.15
2018-07-10T12:33:15.545Z,8.95
2018-07-10T12:35:44.682Z,8.10
2018-07-10T12:38:13.806Z,7.80
2018-07-10T12:40:42.356Z,7.30
2018-07-10T12:43:11.374Z,7.62
2018-07-10T12:45:39.904Z,7.33
2018-07-10T12:48:08.442Z,8.70
2018-07-10T12:50:37.008Z,9.15
2018-07-10T12:53:06.356Z,10.60
2018-07-10T12:55:36.079Z,11.33
2018-07-10T12:58:04.933Z,9.05
2018-07-10T13:00:37.266Z,9.38
2018-07-10T13:03:07.695Z,10.30
2018-07-10T13:06:09.308Z,6.97
2018-07-10T13:08:37.820Z,8.75
2018-07-10T13:11:06.456Z,10.88
2018-07-10T13:13:35.162Z,8.18
2018-07-10T13:16:03.666Z,10.03
2018-07-10T13:18:34.918Z,10.90
2018-07-10T13:21:03.528Z,8.25
2018-07-10T13:23:32.028Z,10.40
2018-07-10T13:26:00.579Z,9.50
2018-07-10T13:28:31.703Z,10.45
2018-07-10T13:31:03.376Z,11.45
2018-07-10T13:33:35.112Z,10.78
2018-07-10T13:36:05.301Z,12.40
2018-07-10T13:38:34.625Z,12.95
2018-07-10T13:41:03.912Z,12.37
2018-07-10T13:43:32.583Z,17.20
2018-07-10T13:46:01.683Z,15.83
2018-07-10T13:48:30.489Z,14.40
2018-07-10T13:50:58.899Z,14.40
2018-07-10T13:53:28.125Z,13.00
2018-07-10T13:55:57.536Z,10.65
2018-07-10T13:58:31.417Z,12.13
2018-07-10T14:01:03.012Z,15.55
2018-07-10T14:03:32.696Z,11.57
2018-07-10T14:06:02.741Z,11.50
2018-07-10T14:08:35.173Z,13.20
2018-07-10T14:11:05.768Z,15.13
2018-07-10T14:13:50.282Z,17.55
2018-07-10T14:16:22.276Z,16.75
2018-07-10T14:18:54.366Z,13.10
2018-07-10T14:21:24.917Z,12.63
2018-07-10T14:23:57.396Z,10.50
2018-07-10T14:26:27.361Z,14.87
2018-07-10T14:29:00.241Z,12.63
2018-07-10T14:31:32.515Z,11.05
2018-07-10T14:34:04.102Z,13.70
2018-07-10T14:36:33.274Z,9.83
2018-07-10T14:39:05.130Z,12.18
2018-07-10T14:41:34.324Z,10.78
2018-07-10T14:44:06.692Z,10.08
2018-07-10T14:46:35.382Z,12.07
2018-07-10T14:49:05.585Z,10.40
2018-07-10T14:51:43.430Z,8.55
2018-07-10T14:54:14.522Z,7.12
2018-07-10T14:56:44.107Z,7.75
2018-07-10T14:59:12.756Z,7.22
2018-07-10T15:01:41.961Z,7.22
2018-07-10T15:04:10.876Z,7.65
2018-07-10T15:06:39.586Z,8.53
2018-07-10T15:09:09.670Z,8.33
2018-07-10T15:11:38.911Z,9.28
2018-07-10T15:14:10.673Z,10.48
2018-07-10T15:16:45.654Z,10.80
2018-07-10T15:19:16.777Z,10.48
2018-07-10T15:21:47.314Z,8.50
2018-07-10T15:24:16.023Z,11.60
2018-07-10T15:27:10.154Z,12.63
2018-07-10T15:29:41.435Z,10.03
2018-07-10T15:32:11.173Z,10.40
2018-07-10T15:34:42.831Z,8.38
2018-07-10T15:37:11.410Z,9.60
2018-07-10T15:39:41.373Z,11.60
2018-07-10T15:42:10.760Z,9.63
2018-07-10T15:44:39.566Z,9.80
2018-07-10T15:47:11.448Z,11.68
2018-07-10T15:49:41.433Z,9.60
2018-07-10T15:52:12.147Z,7.55
2018-07-10T15:54:40.816Z,8.03
2018-07-10T15:57:09.731Z,9.25
2018-07-10T15:59:38.472Z,6.92
2018-07-10T16:02:09.240Z,6.78
2018-07-10T16:04:40.813Z,7.47
2018-07-10T16:07:10.263Z,7.00
2018-07-10T16:09:39.069Z,9.00
2018-07-10T16:12:08.698Z,6.05
2018-07-10T16:14:39.008Z,6.20
2018-07-10T16:17:16.308Z,6.15
2018-07-10T16:19:46.234Z,4.25
2018-07-10T16:25:07.317Z,4.55
2018-07-10T16:27:42.611Z,5.10
2018-07-10T16:30:12.935Z,4.70
2018-07-10T16:32:43.113Z,4.78
2018-07-10T16:35:13.309Z,3.87
2018-07-10T16:37:45.536Z,5.30
2018-07-10T16:40:16.852Z,4.45
2018-07-10T16:42:48.089Z,3.67
2018-07-10T16:45:29.999Z,3.60
2018-07-10T16:50:12.108Z,2.80
2018-07-10T16:52:51.494Z,3.27
2018-07-10T16:55:24.781Z,2.55
2018-07-10T16:57:53.929Z,2.55
2018-07-10T17:00:23.705Z,2.20
2018-07-10T17:02:54.449Z,2.17
2018-07-10T17:05:23.743Z,2.40
2018-07-10T17:07:54.178Z,3.00
2018-07-10T17:10:22.997Z,4.78
2018-07-10T17:12:51.229Z,2.85
2018-07-10T17:15:19.895Z,3.15
2018-07-10T17:17:48.432Z,2.42
2018-07-10T17:20:18.368Z,4.83
2018-07-10T17:22:47.564Z,2.55
2018-07-10T17:25:16.962Z,2.40
2018-07-10T17:27:46.547Z,2.98
2018-07-10T17:30:16.141Z,2.22
2018-07-10T17:32:44.720Z,2.83
2018-07-10T17:35:13.291Z,3.55
2018-07-10T17:37:47.100Z,3.02
2018-07-10T17:40:16.302Z,3.12
2018-07-10T17:42:46.126Z,3.35
2018-07-10T17:45:21.035Z,3.12
2018-07-10T17:47:50.027Z,4.05
2018-07-10T17:50:18.692Z,2.70
2018-07-10T17:52:47.272Z,2.87
2018-07-10T17:55:15.991Z,2.75
2018-07-10T17:57:44.530Z,3.37
2018-07-10T18:00:13.807Z,4.28
2018-07-10T18:02:42.986Z,1.95
2018-07-10T18:05:11.555Z,1.95
2018-07-10T18:07:40.240Z,1.70
2018-07-10T18:10:09.483Z,1.60
2018-07-10T18:12:38.158Z,1.32
2018-07-10T18:15:06.894Z,1.40
2018-07-10T18:17:35.515Z,1.90
2018-07-10T18:20:04.555Z,1.65
2018-07-10T18:22:33.763Z,3.52
2018-07-10T18:25:02.273Z,1.05
2018-07-10T18:27:30.870Z,1.87
2018-07-10T18:29:59.531Z,1.32
2018-07-10T18:32:28.152Z,1.80
2018-07-10T18:34:58.388Z,2.22
2018-07-10T18:37:26.987Z,4.58
2018-07-10T18:39:56.073Z,2.17
2018-07-10T18:42:24.757Z,2.35
2018-07-10T18:44:53.670Z,1.40
2018-07-10T18:47:22.646Z,1.57
2018-07-10T18:49:53.150Z,1.55
2018-07-10T18:52:25.887Z,2.25
2018-07-10T18:54:54.978Z,1.50
2018-07-10T18:58:32.883Z,2.67
2018-07-10T19:02:26.319Z,1.22
2018-07-10T19:05:02.180Z,0.70
2018-07-10T19:07:31.520Z,1.00
2018-07-10T19:10:01.295Z,0.68
2018-07-10T19:12:29.866Z,0.82
2018-07-10T19:15:00.080Z,0.70
2018-07-10T19:17:30.798Z,1.32
2018-07-10T19:20:08.751Z,1.02
2018-07-10T19:23:00.333Z,1.07
2018-07-10T19:25:28.954Z,2.08
2018-07-10T19:27:59.756Z,2.52
2018-07-10T19:30:52.677Z,1.82
2018-07-10T19:33:22.847Z,1.32
2018-07-10T19:35:52.471Z,2.05
2018-07-10T19:38:21.125Z,0.95
2018-07-10T19:40:49.760Z,1.00
2018-07-10T19:43:19.535Z,0.68
2018-07-10T19:45:48.459Z,1.62
2018-07-10T19:48:17.766Z,0.80
2018-07-10T19:50:46.884Z,1.20
2018-07-10T19:53:16.118Z,1.62
2018-07-10T19:55:45.851Z,1.77
2018-07-10T19:58:25.404Z,0.85
2018-07-10T20:00:58.225Z,1.82
2018-07-10T20:03:36.887Z,0.80
2018-07-10T20:06:10.756Z,1.20
2018-07-10T20:08:44.824Z,1.20
2018-07-10T20:11:14.415Z,2.17
2018-07-10T20:13:48.268Z,0.80
2018-07-10T20:16:31.341Z,3.25
2018-07-10T20:19:08.741Z,1.47
2018-07-10T20:22:47.933Z,1.70
2018-07-10T20:25:55.866Z,1.52
2018-07-10T20:29:06.197Z,1.67
2018-07-10T20:31:43.444Z,1.25
2018-07-10T20:34:28.678Z,1.80
2018-07-10T20:36:57.245Z,1.65
2018-07-10T20:39:34.557Z,1.40
2018-07-10T20:42:03.316Z,2.80
2018-07-10T20:44:39.723Z,2.35
2018-07-10T20:47:09.658Z,1.75
2018-07-10T20:49:52.592Z,2.08
2018-07-10T20:52:27.837Z,2.92
2018-07-10T20:55:03.959Z,1.95
2018-07-10T20:58:10.152Z,4.85
2018-07-10T21:00:40.988Z,2.08
2018-07-10T21:03:19.794Z,2.25
2018-07-10T21:05:50.137Z,1.57
2018-07-10T21:08:38.641Z,2.87
2018-07-10T21:11:14.808Z,2.90
2018-07-10T21:13:53.487Z,2.22
2018-07-10T21:16:33.014Z,2.85
2018-07-10T21:20:14.994Z,2.15
2018-07-10T21:22:57.593Z,2.40
2018-07-10T21:26:32.192Z,2.67
2018-07-10T21:29:10.012Z,2.98
2018-07-10T21:31:48.252Z,3.00
2018-07-10T21:34:22.785Z,2.50
2018-07-10T21:36:58.532Z,3.20
2018-07-10T21:39:35.444Z,3.62
2018-07-10T21:43:10.268Z,2.70
2018-07-10T21:45:50.017Z,2.77
2018-07-10T21:48:31.432Z,3.12
2018-07-10T21:51:00.038Z,2.80
2018-07-10T21:53:28.627Z,3.12
2018-07-10T21:55:57.433Z,3.22
2018-07-10T21:58:25.993Z,3.37
2018-07-10T22:02:04.411Z,3.47
2018-07-10T22:04:35.268Z,2.83
2018-07-10T22:07:10.818Z,3.27
2018-07-10T22:09:40.825Z,3.47
2018-07-10T22:12:11.897Z,3.20
2018-07-10T22:14:41.587Z,4.78
2018-07-10T22:17:21.772Z,3.45
2018-07-10T22:19:51.785Z,3.90
2018-07-10T22:22:21.988Z,3.95
2018-07-10T22:24:52.710Z,4.08
2018-07-10T22:27:23.801Z,5.75
2018-07-10T22:30:08.052Z,5.35
2018-07-10T22:32:45.876Z,4.50
2018-07-10T22:35:17.253Z,5.00
2018-07-10T22:37:48.135Z,4.97
2018-07-10T22:40:18.854Z,5.33
2018-07-10T22:42:50.831Z,5.10
2018-07-10T22:45:21.896Z,4.40
2018-07-10T22:48:01.138Z,5.22
2018-07-10T22:50:41.936Z,5.10
2018-07-10T22:53:13.557Z,5.42
2018-07-10T22:55:44.675Z,4.92
2018-07-10T22:58:13.334Z,5.55
2018-07-10T23:00:41.973Z,5.70
2018-07-10T23:03:21.716Z,5.33
2018-07-10T23:05:52.751Z,5.75
2018-07-10T23:08:32.187Z,8.63
2018-07-10T23:11:02.757Z,6.20
2018-07-10T23:13:32.379Z,5.85
2018-07-10T23:16:00.919Z,7.70
2018-07-10T23:18:29.495Z,6.87
2018-07-10T23:20:58.972Z,6.55
2018-07-10T23:23:27.893Z,6.33
